Time,TemperatureF,DewpointF,PressureIn,WindDirection,WindDirectionDegrees,WindSpeedMPH,WindSpeedGustMPH,Humidity,HourlyPrecipIn,Conditions,Clouds,dailyrainin,SoftwareType,DateUTC
2013-05-16 00:12:00,74.0,63.0,30.17,East,82,3.0,10.0,69,0.00,,,0.00,weatherlink.com 1.10,2013-05-16 04:12:00,
2013-05-16 00:26:00,73.9,63.0,30.17,East,79,7.0,11.0,68,0.00,,,0.00,weatherlink.com 1.10,2013-05-16 04:26:00,
2013-05-16 00:42:00,73.7,63.0,30.16,SE,125,5.0,11.0,69,0.00,,,0.00,weatherlink.com 1.10,2013-05-16 04:42:00,
2013-05-16 00:58:00,73.5,62.0,30.16,East,85,9.0,11.0,68,0.00,,,0.00,weatherlink.com 1.10,2013-05-16 04:58:00,
2013-05-16 01:12:00,73.3,62.0,30.16,East,99,5.0,8.0,68,0.00,,,0.00,weatherlink.com 1.10,2013-05-16 05:12:00,
2013-05-16 01:27:00,73.3,62.0,30.15,ESE,108,6.0,9.0,67,0.00,,,0.00,weatherlink.com 1.10,2013-05-16 05:27:00,
2013-05-16 01:43:00,73.2,62.0,30.14,ESE,108,2.0,8.0,68,0.00,,,0.00,weatherlink.com 1.10,2013-05-16 05:43:00,
2013-05-16 01:57:00,72.9,61.0,30.14,ESE,110,5.0,10.0,66,0.00,,,0.00,weatherlink.com 1.10,2013-05-16 05:57:00,
2013-05-16 02:13:00,72.9,60.0,30.13,East,101,8.0,10.0,64,0.00,,,0.00,weatherlink.com 1.10,2013-05-16 06:13:00,
2013-05-16 02:28:00,73.0,60.0,30.12,ESE,110,6.0,10.0,63,0.00,,,0.00,weatherlink.com 1.10,2013-05-16 06:28:00,
2013-05-16 02:43:00,72.8,59.0,30.12,ESE,105,3.0,7.0,63,0.00,,,0.00,weatherlink.com 1.10,2013-05-16 06:43:00,
2013-05-16 02:58:00,72.6,60.0,30.11,ESE,112,3.0,7.0,64,0.00,,,0.00,weatherlink.com 1.10,2013-05-16 06:58:00,
2013-05-16 03:13:00,72.4,60.0,30.11,ESE,105,6.0,6.0,65,0.00,,,0.00,weatherlink.com 1.10,2013-05-16 07:13:00,
2013-05-16 03:28:00,72.6,60.0,30.11,East,99,5.0,6.0,64,0.00,,,0.00,weatherlink.com 1.10,2013-05-16 07:28:00,
2013-05-16 03:43:00,72.6,60.0,30.11,East,101,2.0,8.0,65,0.00,,,0.00,weatherlink.com 1.10,2013-05-16 07:43:00,
2013-05-16 03:58:00,72.4,60.0,30.11,ESE,113,2.0,4.0,65,0.00,,,0.00,weatherlink.com 1.10,2013-05-16 07:58:00,
2013-05-16 04:13:00,71.9,59.0,30.11,ESE,105,2.0,4.0,65,0.00,,,0.00,weatherlink.com 1.10,2013-05-16 08:13:00,
2013-05-16 04:28:00,71.7,59.0,30.11,East,92,2.0,4.0,65,0.00,,,0.00,weatherlink.com 1.10,2013-05-16 08:28:00,
2013-05-16 04:43:00,71.5,59.0,30.11,ESE,113,2.0,2.0,65,0.00,,,0.00,weatherlink.com 1.10,2013-05-16 08:43:00,
2013-05-16 04:58:00,71.8,60.0,30.11,ESE,112,3.0,6.0,67,0.00,,,0.00,weatherlink.com 1.10,2013-05-16 08:58:00,
2013-05-16 05:13:00,72.1,61.0,30.11,East,82,3.0,5.0,67,0.00,,,0.00,weatherlink.com 1.10,2013-05-16 09:13:00,
2013-05-16 05:28:00,72.1,60.0,30.11,ESE,123,3.0,5.0,66,0.00,,,0.00,weatherlink.com 1.10,2013-05-16 09:28:00,
2013-05-16 05:43:00,72.2,60.0,30.11,ESE,103,5.0,5.0,66,0.00,,,0.00,weatherlink.com 1.10,2013-05-16 09:43:00,
2013-05-16 05:58:00,72.5,60.0,30.11,SE,135,2.0,7.0,65,0.00,,,0.00,weatherlink.com 1.10,2013-05-16 09:58:00,
2013-05-16 06:13:00,72.4,59.0,30.12,ESE,103,3.0,7.0,64,0.00,,,0.00,weatherlink.com 1.10,2013-05-16 10:13:00,
2013-05-16 06:28:00,72.1,60.0,30.12,ESE,113,1.0,3.0,66,0.00,,,0.00,weatherlink.com 1.10,2013-05-16 10:28:00,
2013-05-16 06:43:00,71.9,61.0,30.13,ESE,106,1.0,3.0,68,0.00,,,0.00,weatherlink.com 1.10,2013-05-16 10:43:00,
2013-05-16 06:59:00,72.2,61.0,30.13,ENE,78,5.0,6.0,68,0.00,,,0.00,weatherlink.com 1.10,2013-05-16 10:59:00,
2013-05-16 07:13:00,72.9,61.0,30.14,ESE,113,3.0,4.0,66,0.00,,,0.00,weatherlink.com 1.10,2013-05-16 11:13:00,
2013-05-16 07:28:00,74.3,62.0,30.14,East,97,3.0,5.0,65,0.00,,,0.00,weatherlink.com 1.10,2013-05-16 11:28:00,
2013-05-16 07:43:00,74.9,61.0,30.14,East,82,4.0,6.0,62,0.00,,,0.00,weatherlink.com 1.10,2013-05-16 11:43:00,
2013-05-16 07:58:00,74.3,61.0,30.14,ESE,110,2.0,6.0,64,0.00,,,0.00,weatherlink.com 1.10,2013-05-16 11:58:00,
2013-05-16 08:13:00,75.1,61.0,30.15,ESE,122,5.0,8.0,61,0.00,,,0.00,weatherlink.com 1.10,2013-05-16 12:13:00,
2013-05-16 08:28:00,75.0,61.0,30.15,ENE,70,3.0,10.0,63,0.00,,,0.00,weatherlink.com 1.10,2013-05-16 12:28:00,
2013-05-16 08:44:00,76.1,63.0,30.15,ENE,75,7.0,14.0,63,0.00,,,0.00,weatherlink.com 1.10,2013-05-16 12:44:00,
2013-05-16 08:59:00,76.6,63.0,30.16,East,99,5.0,8.0,63,0.00,,,0.00,weatherlink.com 1.10,2013-05-16 12:59:00,
2013-05-16 09:14:00,75.8,62.0,30.16,East,81,5.0,9.0,63,0.00,,,0.00,weatherlink.com 1.10,2013-05-16 13:14:00,
2013-05-16 09:29:00,76.7,62.0,30.16,SE,132,6.0,11.0,60,0.00,,,0.00,weatherlink.com 1.10,2013-05-16 13:29:00,
2013-05-16 09:44:00,77.0,61.0,30.16,ENE,64,8.0,13.0,59,0.00,,,0.00,weatherlink.com 1.10,2013-05-16 13:44:00,
2013-05-16 09:59:00,76.9,63.0,30.16,East,95,8.0,12.0,62,0.00,,,0.00,weatherlink.com 1.10,2013-05-16 13:59:00,
2013-05-16 10:14:00,77.0,62.0,30.17,ENE,62,4.0,12.0,60,0.00,,,0.00,weatherlink.com 1.10,2013-05-16 14:14:00,
2013-05-16 10:29:00,77.4,62.0,30.17,East,98,5.0,13.0,59,0.00,,,0.00,weatherlink.com 1.10,2013-05-16 14:29:00,
2013-05-16 10:44:00,77.5,62.0,30.17,East,86,3.0,8.0,60,0.00,,,0.00,weatherlink.com 1.10,2013-05-16 14:44:00,
2013-05-16 10:59:00,78.0,64.0,30.16,ENE,66,8.0,9.0,62,0.00,,,0.00,weatherlink.com 1.10,2013-05-16 14:59:00,
2013-05-16 11:14:00,77.9,63.0,30.17,ENE,75,8.0,11.0,61,0.00,,,0.00,weatherlink.com 1.10,2013-05-16 15:14:00,
2013-05-16 11:29:00,77.8,65.0,30.17,ENE,58,6.0,12.0,64,0.00,,,0.00,weatherlink.com 1.10,2013-05-16 15:29:00,
2013-05-16 11:44:00,77.5,63.0,30.18,East,88,7.0,12.0,62,0.00,,,0.00,weatherlink.com 1.10,2013-05-16 15:44:00,
2013-05-16 11:59:00,77.9,64.0,30.18,SE,127,5.0,11.0,63,0.00,,,0.00,weatherlink.com 1.10,2013-05-16 15:59:00,
2013-05-16 12:14:00,78.2,63.0,30.18,ENE,65,5.0,11.0,60,0.00,,,0.00,weatherlink.com 1.10,2013-05-16 16:14:00,
2013-05-16 12:29:00,77.6,63.0,30.18,SE,126,5.0,10.0,62,0.00,,,0.00,weatherlink.com 1.10,2013-05-16 16:29:00,
2013-05-16 12:44:00,77.5,65.0,30.17,ENE,57,8.0,12.0,65,0.00,,,0.00,weatherlink.com 1.10,2013-05-16 16:44:00,
2013-05-16 12:59:00,77.4,65.0,30.17,ENE,65,6.0,9.0,65,0.00,,,0.00,weatherlink.com 1.10,2013-05-16 16:59:00,
2013-05-16 13:14:00,78.1,64.0,30.16,East,88,9.0,12.0,62,0.00,,,0.00,weatherlink.com 1.10,2013-05-16 17:14:00,
2013-05-16 13:29:00,77.9,64.0,30.16,East,94,9.0,11.0,63,0.00,,,0.00,weatherlink.com 1.10,2013-05-16 17:29:00,
2013-05-16 13:44:00,77.6,64.0,30.16,East,93,11.0,11.0,63,0.00,,,0.00,weatherlink.com 1.10,2013-05-16 17:44:00,
2013-05-16 13:59:00,77.5,64.0,30.16,ENE,72,6.0,12.0,63,0.00,,,0.00,weatherlink.com 1.10,2013-05-16 17:59:00,
2013-05-16 14:14:00,77.7,64.0,30.15,NE,46,6.0,10.0,62,0.00,,,0.00,weatherlink.com 1.10,2013-05-16 18:14:00,
2013-05-16 14:29:00,77.1,64.0,30.15,NE,44,2.0,10.0,64,0.00,,,0.00,weatherlink.com 1.10,2013-05-16 18:29:00,
2013-05-16 14:44:00,77.6,64.0,30.15,ENE,78,9.0,12.0,64,0.00,,,0.00,weatherlink.com 1.10,2013-05-16 18:44:00,
2013-05-16 14:59:00,77.6,64.0,30.14,ENE,78,9.0,13.0,64,0.00,,,0.00,weatherlink.com 1.10,2013-05-16 18:59:00,
2013-05-16 15:14:00,78.0,64.0,30.14,ENE,57,8.0,12.0,63,0.00,,,0.00,weatherlink.com 1.10,2013-05-16 19:14:00,
2013-05-16 15:29:00,77.6,64.0,30.13,East,101,10.0,12.0,64,0.00,,,0.00,weatherlink.com 1.10,2013-05-16 19:29:00,
2013-05-16 15:44:00,77.8,65.0,30.13,ENE,75,5.0,16.0,64,0.00,,,0.00,weatherlink.com 1.10,2013-05-16 19:44:00,
2013-05-16 15:59:00,77.6,64.0,30.12,ENE,65,9.0,11.0,63,0.00,,,0.00,weatherlink.com 1.10,2013-05-16 19:59:00,
2013-05-16 16:14:00,77.9,67.0,30.12,ENE,72,10.0,13.0,68,0.00,,,0.00,weatherlink.com 1.10,2013-05-16 20:14:00,
2013-05-16 16:29:00,77.9,65.0,30.12,ENE,57,6.0,9.0,65,0.00,,,0.00,weatherlink.com 1.10,2013-05-16 20:29:00,
2013-05-16 16:44:00,77.9,65.0,30.12,ENE,75,8.0,13.0,64,0.00,,,0.00,weatherlink.com 1.10,2013-05-16 20:44:00,
2013-05-16 16:59:00,77.7,65.0,30.11,ENE,72,6.0,10.0,64,0.00,,,0.00,weatherlink.com 1.10,2013-05-16 20:59:00,
2013-05-16 17:14:00,77.6,64.0,30.11,ESE,114,11.0,11.0,63,0.00,,,0.00,weatherlink.com 1.10,2013-05-16 21:14:00,
2013-05-16 17:29:00,77.2,64.0,30.11,ENE,72,7.0,14.0,64,0.00,,,0.00,weatherlink.com 1.10,2013-05-16 21:29:00,
2013-05-16 17:44:00,77.0,64.0,30.11,ENE,60,8.0,9.0,64,0.00,,,0.00,weatherlink.com 1.10,2013-05-16 21:44:00,
2013-05-16 17:59:00,76.8,64.0,30.11,ESE,105,5.0,11.0,64,0.00,,,0.00,weatherlink.com 1.10,2013-05-16 21:59:00,
2013-05-16 18:14:00,77.1,64.0,30.10,ENE,75,6.0,13.0,65,0.00,,,0.00,weatherlink.com 1.10,2013-05-16 22:14:00,
2013-05-16 18:29:00,77.0,66.0,30.10,ENE,67,9.0,13.0,68,0.00,,,0.00,weatherlink.com 1.10,2013-05-16 22:29:00,
2013-05-16 18:44:00,76.1,65.0,30.11,East,79,8.0,11.0,69,0.00,,,0.00,weatherlink.com 1.10,2013-05-16 22:44:00,
2013-05-16 18:59:00,76.3,65.0,30.11,ESE,102,5.0,10.0,69,0.00,,,0.00,weatherlink.com 1.10,2013-05-16 22:59:00,
2013-05-16 19:14:00,76.1,65.0,30.11,East,97,7.0,11.0,68,0.00,,,0.00,weatherlink.com 1.10,2013-05-16 23:14:00,
2013-05-16 19:29:00,76.1,65.0,30.11,ENE,69,9.0,9.0,69,0.00,,,0.00,weatherlink.com 1.10,2013-05-16 23:29:00,
2013-05-16 19:44:00,75.7,65.0,30.10,East,85,7.0,10.0,69,0.00,,,0.00,weatherlink.com 1.10,2013-05-16 23:44:00,
2013-05-16 19:59:00,75.4,64.0,30.11,East,85,6.0,11.0,68,0.00,,,0.00,weatherlink.com 1.10,2013-05-16 23:59:00,
2013-05-16 20:14:00,75.3,64.0,30.11,ESE,106,8.0,11.0,69,0.00,,,0.00,weatherlink.com 1.10,2013-05-17 00:14:00,
2013-05-16 20:30:00,75.3,65.0,30.11,ESE,107,7.0,11.0,70,0.00,,,0.00,weatherlink.com 1.10,2013-05-17 00:30:00,
2013-05-16 20:44:00,75.2,66.0,30.11,ENE,61,4.0,9.0,72,0.00,,,0.00,weatherlink.com 1.10,2013-05-17 00:44:00,
2013-05-16 20:59:00,75.0,65.0,30.11,East,93,4.0,7.0,71,0.00,,,0.00,weatherlink.com 1.10,2013-05-17 00:59:00,
2013-05-16 21:14:00,75.0,65.0,30.11,East,91,4.0,8.0,72,0.00,,,0.00,weatherlink.com 1.10,2013-05-17 01:14:00,
2013-05-16 21:30:00,74.9,66.0,30.12,NE,51,3.0,6.0,73,0.00,,,0.00,weatherlink.com 1.10,2013-05-17 01:30:00,
2013-05-16 21:44:00,74.5,66.0,30.11,East,84,6.0,9.0,74,0.00,,,0.00,weatherlink.com 1.10,2013-05-17 01:44:00,
2013-05-16 21:59:00,75.0,66.0,30.11,East,86,7.0,8.0,73,0.00,,,0.00,weatherlink.com 1.10,2013-05-17 01:59:00,
2013-05-16 22:14:00,75.2,67.0,30.11,ESE,115,4.0,9.0,75,0.00,,,0.00,weatherlink.com 1.10,2013-05-17 02:14:00,
2013-05-16 22:29:00,75.4,67.0,30.11,East,83,9.0,11.0,76,0.00,,,0.00,weatherlink.com 1.10,2013-05-17 02:29:00,
2013-05-16 22:44:00,75.7,66.0,30.12,ESE,108,8.0,-999.0,73,-99.99,,,0.00,weatherlink.com 1.10,2013-05-17 02:44:00,
2013-05-16 22:59:00,75.7,65.0,30.12,East,86,6.0,13.0,70,0.00,,,0.00,weatherlink.com 1.10,2013-05-17 02:59:00,
2013-05-16 23:14:00,75.5,65.0,30.12,East,86,10.0,11.0,71,0.00,,,0.00,weatherlink.com 1.10,2013-05-17 03:14:00,
2013-05-16 23:29:00,75.5,65.0,30.12,East,95,8.0,9.0,70,0.00,,,0.00,weatherlink.com 1.10,2013-05-17 03:29:00,
2013-05-16 23:44:00,75.5,65.0,30.12,East,96,5.0,9.0,69,0.00,,,0.00,weatherlink.com 1.10,2013-05-17 03:44:00,
2013-05-16 23:59:00,75.5,64.0,30.12,ESE,117,3.0,10.0,68,0.00,,,0.00,weatherlink.com 1.10,2013-05-17 03:59:00,